Time;durP1;ratioP1;P1;durP2;ratioP2;P2;SDS_P1;SDS_P2;PMS_P1;PMS_P2;Temp;Humidity;BMP_temperature;BMP_pressure;BME280_temperature;BME280_humidity;BME280_pressure;Samples;Min_cycle;Max_cycle;Signal;HPM_P1;HPM_P2
2022/03/28 00:00:46;;;;;;;33.15;14.15;;;12.90;99.90;;;;;;6185450;23;20024;-87
2022/03/28 00:03:13;;;;;;;27.00;13.60;;;12.80;99.90;;;;;;6161301;23;20009;-87
2022/03/28 00:05:40;;;;;;;26.70;12.27;;;12.80;99.90;;;;;;6162375;23;20005;-87
2022/03/28 00:08:07;;;;;;;26.73;12.20;;;12.80;99.90;;;;;;6162481;23;20470;-87
2022/03/28 00:10:33;;;;;;;27.60;13.10;;;12.80;99.90;;;;;;6162731;23;20001;-87
2022/03/28 00:13:01;;;;;;;35.38;13.98;;;12.80;99.90;;;;;;6162724;23;20019;-87
2022/03/28 00:15:28;;;;;;;32.30;13.20;;;12.80;99.90;;;;;;6157482;23;20014;-87
2022/03/28 00:17:56;;;;;;;23.60;11.70;;;12.80;99.90;;;;;;6158187;23;20015;-87
2022/03/28 00:20:24;;;;;;;27.48;12.52;;;12.90;99.90;;;;;;6158222;23;20012;-87
2022/03/28 00:22:51;;;;;;;29.95;12.07;;;12.80;99.90;;;;;;6157789;23;20016;-87
2022/03/28 00:25:18;;;;;;;33.55;13.13;;;12.90;99.90;;;;;;6157524;23;20001;-88
2022/03/28 00:27:44;;;;;;;30.25;12.80;;;12.90;99.90;;;;;;6157281;23;20017;-87
2022/03/28 00:30:11;;;;;;;31.92;14.88;;;12.80;99.90;;;;;;6156987;23;20033;-87
2022/03/28 00:32:38;;;;;;;28.92;13.75;;;12.90;99.90;;;;;;6157121;23;20014;-87
2022/03/28 00:35:05;;;;;;;34.45;14.02;;;13.00;99.90;;;;;;6156959;23;20085;-87
2022/03/28 00:37:32;;;;;;;32.70;14.55;;;12.90;99.90;;;;;;6157288;23;20021;-87
2022/03/28 00:39:58;;;;;;;35.55;15.50;;;12.90;99.90;;;;;;6157135;23;20020;-86
2022/03/28 00:42:25;;;;;;;38.30;14.40;;;12.90;99.90;;;;;;6157057;23;20048;-87
2022/03/28 00:44:52;;;;;;;30.90;13.38;;;12.80;99.90;;;;;;6156867;23;20129;-87
2022/03/28 00:47:18;;;;;;;34.33;13.48;;;12.80;99.90;;;;;;6157034;23;20016;-87
2022/03/28 00:49:45;;;;;;;28.10;12.80;;;12.70;99.90;;;;;;6157016;23;20440;-87
2022/03/28 00:52:11;;;;;;;29.38;14.07;;;12.70;99.90;;;;;;6157031;23;20431;-87
2022/03/28 00:54:37;;;;;;;32.78;13.82;;;12.80;99.90;;;;;;6157083;23;20006;-86
2022/03/28 00:57:05;;;;;;;26.70;12.52;;;12.70;99.90;;;;;;6157002;23;20033;-86
2022/03/28 00:59:32;;;;;;;30.88;12.70;;;12.70;99.90;;;;;;6157018;23;20009;-88
2022/03/28 01:02:02;;;;;;;33.35;14.00;;;12.70;99.90;;;;;;6156881;23;20490;-87
2022/03/28 01:04:29;;;;;;;30.52;12.95;;;12.70;99.90;;;;;;6156510;23;20005;-87
2022/03/28 01:06:56;;;;;;;30.00;12.73;;;12.80;99.90;;;;;;6156996;23;20060;-87
2022/03/28 01:09:23;;;;;;;25.10;12.77;;;12.70;99.90;;;;;;6156829;23;20032;-86
2022/03/28 01:11:51;;;;;;;27.65;11.05;;;12.70;99.90;;;;;;6156946;23;20009;-87
2022/03/28 01:14:19;;;;;;;26.00;11.35;;;12.70;99.90;;;;;;6156295;23;20025;-86
2022/03/28 01:19:30;;;;;;;21.95;10.27;;;12.70;99.90;;;;;;6156892;23;20010;-86
2022/03/28 01:21:56;;;;;;;27.10;12.68;;;12.50;99.90;;;;;;6132090;23;20036;-86
2022/03/28 01:24:23;;;;;;;24.70;10.30;;;12.50;99.90;;;;;;6131961;23;20036;-86
2022/03/28 01:26:51;;;;;;;22.70;10.02;;;12.60;99.90;;;;;;6132045;23;20009;-86
2022/03/28 01:29:18;;;;;;;28.15;11.48;;;12.70;99.90;;;;;;6132064;23;20005;-86
2022/03/28 01:31:45;;;;;;;24.50;11.27;;;12.70;99.90;;;;;;6132066;23;20056;-87
2022/03/28 01:34:21;;;;;;;30.67;12.38;;;12.70;99.90;;;;;;6131978;23;20009;-86
2022/03/28 01:36:48;;;;;;;32.95;13.68;;;12.70;99.90;;;;;;6132050;23;20049;-87
2022/03/28 01:39:16;;;;;;;31.23;13.55;;;12.50;99.90;;;;;;6132055;23;20451;-86
2022/03/28 01:41:43;;;;;;;30.33;13.85;;;12.60;99.90;;;;;;6131958;23;20013;-86
2022/03/28 01:44:11;;;;;;;31.95;11.70;;;12.60;99.90;;;;;;6132020;23;20424;-87
2022/03/28 01:46:44;;;;;;;27.00;12.02;;;12.60;99.90;;;;;;6131846;23;20068;-88
2022/03/28 01:49:12;;;;;;;23.33;11.20;;;12.60;99.90;;;;;;6131893;23;20009;-86
2022/03/28 01:51:41;;;;;;;27.48;10.40;;;12.60;99.90;;;;;;6131783;23;20017;-87
2022/03/28 01:54:09;;;;;;;22.35;11.23;;;12.60;99.90;;;;;;6131785;23;20005;-87
2022/03/28 01:56:37;;;;;;;29.27;11.02;;;12.50;99.90;;;;;;6131800;23;20009;-87
2022/03/28 01:59:05;;;;;;;27.17;9.90;;;12.60;99.90;;;;;;6131824;23;20132;-86
2022/03/28 02:01:32;;;;;;;29.40;10.25;;;12.60;99.90;;;;;;6131475;23;20105;-86
2022/03/28 02:03:59;;;;;;;22.30;10.60;;;12.50;99.90;;;;;;6131550;23;20053;-86
2022/03/28 02:06:27;;;;;;;24.52;11.68;;;12.50;99.90;;;;;;6131826;23;20391;-87
2022/03/28 02:08:54;;;;;;;24.15;10.75;;;12.50;99.90;;;;;;6131637;23;20013;-86
2022/03/28 02:11:20;;;;;;;25.20;10.98;;;12.50;99.90;;;;;;6131875;23;20006;-87
2022/03/28 02:13:47;;;;;;;20.55;9.48;;;12.50;99.90;;;;;;6133789;23;20060;-86
2022/03/28 02:16:14;;;;;;;22.35;10.20;;;12.40;99.90;;;;;;6161198;23;20017;-86
2022/03/28 02:18:40;;;;;;;24.63;10.18;;;12.30;99.90;;;;;;6161155;23;20509;-87
2022/03/28 02:21:07;;;;;;;19.83;9.23;;;12.30;99.90;;;;;;6161024;23;20512;-86
2022/03/28 02:23:34;;;;;;;21.73;8.82;;;12.30;99.90;;;;;;6161048;23;20451;-86
2022/03/28 02:26:02;;;;;;;20.35;9.57;;;12.20;99.90;;;;;;6160697;23;20001;-86
2022/03/28 02:28:30;;;;;;;20.33;9.30;;;12.20;99.90;;;;;;6185598;23;20502;-86
2022/03/28 02:30:56;;;;;;;25.67;9.07;;;12.20;99.90;;;;;;6161014;23;20001;-87
2022/03/28 02:33:23;;;;;;;15.45;7.25;;;12.20;99.90;;;;;;6157976;23;20102;-86
2022/03/28 02:35:50;;;;;;;18.63;8.98;;;12.30;99.90;;;;;;6160831;23;20017;-86
2022/03/28 02:38:17;;;;;;;19.27;7.68;;;12.30;99.90;;;;;;6160941;23;20391;-86
2022/03/28 02:40:44;;;;;;;12.10;6.47;;;12.30;99.90;;;;;;6185648;23;20063;-86
2022/03/28 02:43:10;;;;;;;14.82;6.43;;;12.40;99.90;;;;;;6185632;23;20001;-87
2022/03/28 02:45:37;;;;;;;12.65;6.53;;;12.40;99.90;;;;;;6160928;23;20067;-87
2022/03/28 02:48:05;;;;;;;13.98;5.80;;;12.40;99.90;;;;;;6160691;23;20473;-86
2022/03/28 02:50:33;;;;;;;17.15;6.57;;;12.40;99.90;;;;;;6158358;23;20012;-87
2022/03/28 02:52:59;;;;;;;17.67;5.68;;;12.40;99.90;;;;;;6186005;23;20012;-87
2022/03/28 02:55:26;;;;;;;12.70;4.68;;;12.40;99.90;;;;;;6160644;23;20013;-86
2022/03/28 02:57:52;;;;;;;20.15;4.88;;;12.30;99.90;;;;;;6185556;23;20052;-86
2022/03/28 03:00:20;;;;;;;9.45;4.28;;;12.30;99.90;;;;;;6185545;23;20059;-86
2022/03/28 03:02:47;;;;;;;14.68;4.68;;;12.30;99.90;;;;;;6160763;23;20457;-87
2022/03/28 03:05:14;;;;;;;9.70;3.45;;;12.30;99.90;;;;;;6185454;23;20005;-86
2022/03/28 03:07:41;;;;;;;10.80;3.85;;;12.20;99.90;;;;;;6160777;23;20005;-86
2022/03/28 03:10:08;;;;;;;8.38;3.58;;;12.30;99.90;;;;;;6185479;23;20036;-86
2022/03/28 03:12:38;;;;;;;8.50;3.58;;;12.30;99.90;;;;;;6160780;23;20019;-86
2022/03/28 03:15:06;;;;;;;9.10;3.70;;;12.30;99.90;;;;;;6180257;23;20026;-86
2022/03/28 03:17:32;;;;;;;8.27;3.95;;;12.30;99.90;;;;;;6180504;23;20455;-88
2022/03/28 03:19:59;;;;;;;9.90;3.58;;;12.30;99.90;;;;;;6181182;23;20499;-87
2022/03/28 03:22:26;;;;;;;9.38;3.20;;;12.30;99.90;;;;;;6180358;23;20009;-86
2022/03/28 03:24:52;;;;;;;11.25;4.05;;;12.30;99.90;;;;;;6180435;23;20041;-87
2022/03/28 03:27:19;;;;;;;13.15;3.97;;;12.30;99.90;;;;;;6180471;23;20008;-86
2022/03/28 03:29:47;;;;;;;10.57;4.05;;;12.30;99.90;;;;;;6180469;23;20066;-87
2022/03/28 03:32:14;;;;;;;5.78;2.78;;;12.40;99.90;;;;;;6180703;23;20033;-86
2022/03/28 03:34:41;;;;;;;8.43;3.28;;;12.30;99.90;;;;;;6180503;23;20010;-87
2022/03/28 03:37:08;;;;;;;7.05;3.35;;;12.30;99.90;;;;;;6180364;23;20017;-88
2022/03/28 03:39:38;;;;;;;8.63;3.33;;;12.30;99.90;;;;;;6182440;23;20017;-87
2022/03/28 03:42:05;;;;;;;6.43;3.47;;;12.30;99.90;;;;;;6182492;23;20013;-89
2022/03/28 03:44:32;;;;;;;11.95;3.25;;;12.20;99.90;;;;;;6182639;23;20010;-87
2022/03/28 03:46:59;;;;;;;12.30;2.78;;;12.20;99.90;;;;;;6159505;23;20005;-88
2022/03/28 03:49:26;;;;;;;10.25;3.70;;;12.10;99.90;;;;;;6183014;23;20014;-87
2022/03/28 03:51:52;;;;;;;5.28;2.88;;;12.00;99.90;;;;;;6182618;23;20339;-88
2022/03/28 03:54:19;;;;;;;8.55;3.38;;;12.00;99.90;;;;;;6182508;23;20010;-87
2022/03/28 03:56:46;;;;;;;10.20;3.58;;;12.10;99.90;;;;;;6182282;23;20016;-87
2022/03/28 03:59:13;;;;;;;11.68;3.40;;;12.10;99.90;;;;;;6182247;23;20006;-87
2022/03/28 04:01:40;;;;;;;12.85;3.05;;;12.10;99.90;;;;;;6182179;23;20006;-87
2022/03/28 04:04:08;;;;;;;7.43;3.25;;;12.10;99.90;;;;;;6157358;23;20001;-87
2022/03/28 04:06:34;;;;;;;8.25;2.83;;;12.10;99.90;;;;;;6181258;23;20021;-87
2022/03/28 04:09:01;;;;;;;6.03;2.83;;;12.10;99.90;;;;;;6181159;23;20028;-87
2022/03/28 04:11:28;;;;;;;11.25;4.18;;;12.10;99.90;;;;;;6181333;23;20458;-87
2022/03/28 04:13:54;;;;;;;5.25;2.53;;;11.90;99.90;;;;;;6184491;23;20006;-88
2022/03/28 04:16:21;;;;;;;8.60;3.05;;;11.80;99.90;;;;;;6161921;23;20020;-87
2022/03/28 04:18:48;;;;;;;7.05;3.17;;;11.80;99.90;;;;;;6162001;23;20013;-89
2022/03/28 04:21:15;;;;;;;9.00;3.08;;;11.90;99.90;;;;;;6186887;23;20013;-87
2022/03/28 04:23:41;;;;;;;5.93;2.28;;;11.90;99.90;;;;;;6186971;23;20024;-88
2022/03/28 04:26:08;;;;;;;11.02;3.63;;;12.00;99.90;;;;;;6162023;23;20005;-87
2022/03/28 04:28:36;;;;;;;9.13;2.58;;;12.00;99.90;;;;;;6162022;23;20451;-88
2022/03/28 04:31:03;;;;;;;7.60;2.58;;;12.10;99.90;;;;;;6186978;23;20005;-89
2022/03/28 04:33:30;;;;;;;7.13;2.40;;;12.10;99.90;;;;;;6162294;23;20084;-87
2022/03/28 04:35:57;;;;;;;11.18;3.28;;;12.10;99.90;;;;;;6161785;23;20024;-86
2022/03/28 04:38:25;;;;;;;9.43;2.92;;;12.10;99.90;;;;;;6161991;23;20001;-85
2022/03/28 04:40:53;;;;;;;6.93;3.05;;;12.00;99.90;;;;;;6161916;23;20096;-84
2022/03/28 04:43:20;;;;;;;7.90;2.92;;;12.10;99.90;;;;;;6161672;23;20435;-84
2022/03/28 04:45:48;;;;;;;8.52;2.95;;;12.10;99.90;;;;;;6161608;23;20020;-83
2022/03/28 04:48:15;;;;;;;7.28;2.83;;;12.00;99.90;;;;;;6161718;23;20335;-83
2022/03/28 04:50:41;;;;;;;9.25;2.70;;;12.00;99.90;;;;;;6161118;23;20009;-84
2022/03/28 04:53:08;;;;;;;7.13;2.85;;;11.90;99.90;;;;;;6161808;23;20005;-84
2022/03/28 04:55:35;;;;;;;4.32;2.60;;;11.90;99.90;;;;;;6161665;23;20019;-86
2022/03/28 04:58:02;;;;;;;8.52;3.50;;;11.90;99.90;;;;;;6161813;23;20009;-87
2022/03/28 05:00:29;;;;;;;11.43;3.03;;;12.00;99.90;;;;;;6161914;23;20009;-87
2022/03/28 05:02:57;;;;;;;8.65;3.22;;;12.00;99.90;;;;;;6161913;23;20009;-87
2022/03/28 05:05:25;;;;;;;14.20;2.47;;;11.90;99.90;;;;;;6161600;23;20016;-85
2022/03/28 05:07:52;;;;;;;10.23;2.42;;;11.70;99.90;;;;;;6161942;23;20079;-84
2022/03/28 05:10:18;;;;;;;9.18;3.05;;;11.80;99.90;;;;;;6161911;23;20009;-86
2022/03/28 05:12:45;;;;;;;11.25;3.22;;;12.00;99.90;;;;;;6161359;23;20020;-88
2022/03/28 05:15:12;;;;;;;6.22;2.92;;;12.00;99.90;;;;;;6156155;23;20022;-87
2022/03/28 05:17:39;;;;;;;10.60;3.10;;;12.00;99.90;;;;;;6132071;23;20045;-89
2022/03/28 05:20:08;;;;;;;8.52;3.50;;;12.10;99.90;;;;;;6156838;23;20010;-90
2022/03/28 05:22:35;;;;;;;11.38;3.47;;;12.10;99.90;;;;;;6132301;23;20017;-89
2022/03/28 05:25:05;;;;;;;13.32;3.97;;;12.10;99.90;;;;;;6131893;23;20033;-87
2022/03/28 05:27:32;;;;;;;10.50;3.83;;;12.00;99.90;;;;;;6131936;23;20009;-89
2022/03/28 05:29:59;;;;;;;9.20;3.42;;;12.00;99.90;;;;;;6156615;23;20009;-87
2022/03/28 05:32:26;;;;;;;12.50;4.10;;;12.10;99.90;;;;;;6132045;23;20006;-87
2022/03/28 05:34:53;;;;;;;8.57;3.30;;;12.00;99.90;;;;;;6132059;23;20009;-86
2022/03/28 05:37:20;;;;;;;10.15;3.50;;;12.00;99.90;;;;;;6156444;23;20020;-87
2022/03/28 05:39:48;;;;;;;8.02;2.53;;;12.10;99.90;;;;;;6156227;23;20009;-88
2022/03/28 05:42:16;;;;;;;7.10;2.80;;;12.00;99.90;;;;;;6130871;23;20014;-87
2022/03/28 05:44:45;;;;;;;6.32;2.70;;;12.00;99.90;;;;;;6130625;23;20031;-87
2022/03/28 05:47:12;;;;;;;8.98;2.38;;;12.00;99.90;;;;;;6071525;23;20089;-88
2022/03/28 05:49:39;;;;;;;8.50;3.25;;;12.10;99.90;;;;;;6071974;23;20014;-88
2022/03/28 05:52:06;;;;;;;5.28;2.08;;;12.20;99.90;;;;;;6076682;23;20006;-88
2022/03/28 05:54:33;;;;;;;5.68;2.38;;;12.00;99.90;;;;;;6077380;23;20064;-88
2022/03/28 05:57:00;;;;;;;5.57;2.35;;;12.20;99.90;;;;;;6072634;23;20414;-88
2022/03/28 05:59:28;;;;;;;6.05;1.83;;;12.30;99.90;;;;;;6072901;23;20013;-86
2022/03/28 06:01:54;;;;;;;9.27;2.13;;;12.40;99.90;;;;;;6072969;23;20101;-86
2022/03/28 06:04:21;;;;;;;7.75;1.80;;;12.50;99.90;;;;;;6096644;23;20437;-88
2022/03/28 06:06:48;;;;;;;4.38;3.13;;;12.50;99.90;;;;;;6072631;23;20030;-88
2022/03/28 06:09:14;;;;;;;5.18;2.17;;;12.60;99.90;;;;;;6072205;23;20014;-87
2022/03/28 06:11:41;;;;;;;5.78;1.50;;;12.80;99.90;;;;;;6072875;23;20011;-88
2022/03/28 06:14:09;;;;;;;7.95;1.83;;;12.70;99.90;;;;;;6066500;23;20015;-87
2022/03/28 06:16:36;;;;;;;11.77;1.52;;;12.80;99.90;;;;;;6043870;23;20457;-87
2022/03/28 06:19:03;;;;;;;3.50;1.30;;;12.80;99.90;;;;;;6068017;23;20011;-88
2022/03/28 06:21:30;;;;;;;4.32;1.58;;;12.80;99.90;;;;;;6043861;23;20014;-88
2022/03/28 06:23:59;;;;;;;3.95;1.58;;;12.80;99.90;;;;;;6086712;23;20060;-89
2022/03/28 06:26:26;;;;;;;3.53;1.30;;;12.90;99.90;;;;;;6131393;23;20084;-88
2022/03/28 06:28:54;;;;;;;4.60;1.80;;;13.00;99.90;;;;;;6131548;23;20010;-88
2022/03/28 06:31:21;;;;;;;6.57;1.52;;;13.10;99.90;;;;;;6131553;23;20009;-88
2022/03/28 06:33:48;;;;;;;9.00;1.80;;;13.30;99.90;;;;;;6131933;23;20454;-88
2022/03/28 06:36:15;;;;;;;2.90;1.33;;;13.50;99.90;;;;;;6156148;23;20021;-88
2022/03/28 06:38:41;;;;;;;4.90;1.42;;;13.70;99.90;;;;;;6155892;23;20440;-89
2022/03/28 06:41:09;;;;;;;2.53;1.58;;;13.90;99.90;;;;;;6156106;23;20011;-87
2022/03/28 06:43:35;;;;;;;5.10;1.13;;;14.10;99.90;;;;;;6156066;23;20072;-88
2022/03/28 06:46:02;;;;;;;6.32;1.08;;;14.30;99.90;;;;;;6131192;23;20454;-88
2022/03/28 06:48:29;;;;;;;3.55;1.10;;;14.20;99.90;;;;;;6155400;23;20096;-87
2022/03/28 06:50:56;;;;;;;4.55;1.35;;;14.20;99.90;;;;;;6107292;23;20010;-88
2022/03/28 06:53:23;;;;;;;2.47;0.90;;;14.20;99.90;;;;;;6155927;23;20013;-88
2022/03/28 06:55:49;;;;;;;7.10;1.17;;;14.40;99.90;;;;;;6131134;23;20093;-90
2022/03/28 06:58:16;;;;;;;4.47;1.95;;;14.50;99.90;;;;;;6155667;23;20343;-89
2022/03/28 07:00:43;;;;;;;3.90;1.80;;;14.60;99.90;;;;;;6131312;23;20036;-89
2022/03/28 07:03:10;;;;;;;3.05;1.17;;;14.60;99.90;;;;;;6121060;23;20010;-88
2022/03/28 07:05:36;;;;;;;4.15;1.60;;;14.50;99.90;;;;;;6120994;23;20343;-87
2022/03/28 07:08:03;;;;;;;5.35;0.95;;;14.50;99.90;;;;;;6131238;23;20669;-87
2022/03/28 07:10:30;;;;;;;2.20;1.08;;;14.50;99.90;;;;;;6156085;23;20002;-88
2022/03/28 07:12:59;;;;;;;5.07;1.02;;;14.50;99.90;;;;;;6106309;23;20013;-87
2022/03/28 07:15:27;;;;;;;5.47;0.73;;;14.50;99.90;;;;;;6130789;23;20043;-87
2022/03/28 07:17:58;;;;;;;9.55;1.92;;;14.60;99.90;;;;;;6180487;23;20063;-86
2022/03/28 07:20:28;;;;;;;1.90;1.25;;;14.70;99.90;;;;;;6180682;23;20014;-87
2022/03/28 07:22:56;;;;;;;5.07;1.25;;;14.70;99.90;;;;;;6180577;23;20017;-87
2022/03/28 07:25:24;;;;;;;2.72;0.90;;;15.00;99.90;;;;;;6180666;23;20451;-88
2022/03/28 07:27:52;;;;;;;6.00;1.85;;;15.20;99.90;;;;;;6180386;23;20009;-91
2022/03/28 07:30:22;;;;;;;4.22;1.23;;;15.40;99.90;;;;;;6180496;23;20452;-88
2022/03/28 07:32:51;;;;;;;6.10;1.27;;;15.40;99.90;;;;;;6180408;23;20085;-87
2022/03/28 07:35:19;;;;;;;8.45;1.20;;;15.60;99.90;;;;;;6180450;23;20013;-87
2022/03/28 07:37:45;;;;;;;18.70;2.15;;;15.80;99.90;;;;;;6180299;23;20024;-86
2022/03/28 07:40:12;;;;;;;5.70;1.52;;;16.10;99.90;;;;;;6180205;23;20048;-86
2022/03/28 07:42:40;;;;;;;4.10;1.38;;;16.40;99.90;;;;;;6180511;23;20033;-83
2022/03/28 07:45:08;;;;;;;6.30;1.50;;;16.70;99.90;;;;;;6180799;23;20005;-91
2022/03/28 07:47:35;;;;;;;4.30;0.95;;;16.50;99.90;;;;;;6180773;23;20006;-89
2022/03/28 07:50:03;;;;;;;5.00;1.80;;;16.30;99.90;;;;;;6180597;23;20009;-90
2022/03/28 07:52:31;;;;;;;3.85;1.30;;;16.30;99.90;;;;;;6180410;23;20012;-89
2022/03/28 07:54:58;;;;;;;4.20;1.48;;;16.40;99.90;;;;;;6180334;23;20064;-88
2022/03/28 07:57:25;;;;;;;1.70;0.98;;;16.30;99.90;;;;;;6180154;23;20024;-86
2022/03/28 07:59:51;;;;;;;3.58;1.10;;;16.30;99.90;;;;;;6182893;23;20332;-88
2022/03/28 08:02:18;;;;;;;2.83;1.38;;;16.40;99.90;;;;;;6180791;23;20320;-89
2022/03/28 08:04:45;;;;;;;7.90;1.65;;;16.40;99.90;;;;;;6180157;23;20095;-89
2022/03/28 08:07:13;;;;;;;4.45;1.75;;;16.60;99.90;;;;;;6180692;23;20072;-89
2022/03/28 08:09:41;;;;;;;11.02;3.13;;;16.30;99.90;;;;;;6180441;23;20012;-88
2022/03/28 08:12:10;;;;;;;11.52;3.13;;;16.20;99.90;;;;;;6180187;23;20021;-89
2022/03/28 08:14:37;;;;;;;8.52;3.72;;;16.30;99.90;;;;;;6179824;23;20024;-88
2022/03/28 08:17:05;;;;;;;6.70;3.05;;;16.50;99.90;;;;;;6180238;23;20017;-88
2022/03/28 08:19:31;;;;;;;7.10;2.33;;;16.70;99.90;;;;;;6180260;23;20399;-89
2022/03/28 08:21:58;;;;;;;4.65;1.40;;;17.00;99.90;;;;;;6180377;23;20435;-90
2022/03/28 08:24:25;;;;;;;8.23;2.22;;;17.20;99.90;;;;;;6181081;23;20041;-91
2022/03/28 08:26:51;;;;;;;13.10;2.45;;;17.50;99.90;;;;;;6182100;23;20470;-90
2022/03/28 08:29:19;;;;;;;6.03;1.58;;;17.90;99.90;;;;;;6182213;23;20002;-89
2022/03/28 08:31:46;;;;;;;4.18;1.55;;;18.30;99.90;;;;;;6181900;23;20009;-88
2022/03/28 08:34:12;;;;;;;6.60;1.38;;;18.80;99.90;;;;;;6181877;23;20013;-90
2022/03/28 08:36:39;;;;;;;12.93;2.53;;;19.00;99.90;;;;;;6181923;23;20025;-89
2022/03/28 08:39:06;;;;;;;12.02;2.40;;;19.30;99.90;;;;;;6181897;23;20010;-91
2022/03/28 08:41:34;;;;;;;10.20;2.10;;;19.50;99.90;;;;;;6182065;23;20009;-85
2022/03/28 08:44:02;;;;;;;5.40;1.85;;;19.70;99.90;;;;;;6181827;23;20040;-90
2022/03/28 08:46:29;;;;;;;3.97;1.70;;;19.80;99.90;;;;;;6182063;23;20013;-90
2022/03/28 08:48:58;;;;;;;6.25;1.98;;;19.80;99.90;;;;;;6182035;23;20033;-90
2022/03/28 08:51:27;;;;;;;5.13;1.80;;;19.30;99.90;;;;;;6181858;23;20009;-88
2022/03/28 08:53:55;;;;;;;3.65;1.50;;;19.20;99.90;;;;;;6181784;23;20036;-90
2022/03/28 08:56:22;;;;;;;3.25;1.75;;;18.80;99.90;;;;;;6181751;23;20014;-90
2022/03/28 08:58:49;;;;;;;15.32;3.38;;;18.60;99.90;;;;;;6181852;23;20376;-90
2022/03/28 09:01:18;;;;;;;6.40;2.60;;;18.50;99.90;;;;;;6182153;23;20073;-91
2022/03/28 09:03:47;;;;;;;9.57;2.92;;;18.30;99.90;;;;;;6183575;23;20088;-92
2022/03/28 09:06:30;;;;;;;6.13;2.00;;;18.10;99.90;;;;;;6184737;23;20153;-91
2022/03/28 09:09:29;;;;;;;9.52;2.70;;;17.70;99.90;;;;;;6181800;23;20017;-91
2022/03/28 09:12:12;;;;;;;13.25;3.17;;;17.50;99.90;;;;;;6156823;23;20010;-90
2022/03/28 09:14:40;;;;;;;6.70;2.60;;;17.50;99.90;;;;;;6181489;23;20466;-90
2022/03/28 09:17:16;;;;;;;6.07;3.08;;;17.60;99.90;;;;;;6181592;23;20019;-90
2022/03/28 09:19:48;;;;;;;5.10;2.47;;;17.60;99.90;;;;;;6157037;23;20015;-90
2022/03/28 09:22:19;;;;;;;6.25;3.35;;;17.60;99.90;;;;;;6181597;23;20013;-90
2022/03/28 09:24:47;;;;;;;9.45;2.38;;;17.60;99.90;;;;;;6181614;23;20009;-90
2022/03/28 09:27:20;;;;;;;7.70;2.35;;;17.60;99.90;;;;;;6181585;23;20086;-91
2022/03/28 09:29:54;;;;;;;12.97;3.07;;;17.50;99.90;;;;;;6181633;23;20001;-90
2022/03/28 09:32:46;;;;;;;10.52;3.38;;;17.30;99.90;;;;;;6181447;23;20093;-91
2022/03/28 09:35:19;;;;;;;3.88;1.88;;;17.20;99.90;;;;;;6181589;23;20013;-91
2022/03/28 09:38:08;;;;;;;5.68;2.28;;;17.20;99.90;;;;;;6181492;23;20025;-91
2022/03/28 09:40:51;;;;;;;5.65;2.17;;;17.30;99.90;;;;;;6156699;23;20096;-90
2022/03/28 09:43:29;;;;;;;9.48;2.50;;;17.30;99.90;;;;;;6181550;23;20017;-90
2022/03/28 09:45:58;;;;;;;9.93;2.00;;;17.30;99.90;;;;;;6181445;23;20010;-90
2022/03/28 09:48:28;;;;;;;3.53;2.30;;;17.40;99.90;;;;;;6181380;23;20009;-90
2022/03/28 09:51:03;;;;;;;3.53;2.00;;;17.50;99.90;;;;;;6182338;23;20009;-91
2022/03/28 09:53:37;;;;;;;9.75;1.67;;;17.50;99.90;;;;;;6181626;23;20088;-90
2022/03/28 09:56:10;;;;;;;16.17;2.72;;;17.50;99.90;;;;;;6181522;23;20079;-90
2022/03/28 09:59:03;;;;;;;3.47;2.28;;;17.50;99.90;;;;;;6181693;23;20012;-91
2022/03/28 10:01:35;;;;;;;6.13;2.03;;;17.50;99.90;;;;;;6185077;23;20036;-92
2022/03/28 10:04:09;;;;;;;7.55;2.65;;;17.30;99.90;;;;;;6185482;23;20033;-90
2022/03/28 10:06:39;;;;;;;4.07;2.23;;;17.30;99.90;;;;;;6181874;23;20021;-91
2022/03/28 10:09:08;;;;;;;4.07;1.58;;;17.40;99.90;;;;;;6181836;23;20331;-91
2022/03/28 10:11:38;;;;;;;1.52;1.05;;;17.50;99.90;;;;;;6182075;23;20091;-91
2022/03/28 10:14:05;;;;;;;2.13;1.00;;;17.40;99.90;;;;;;6182175;23;20014;-91
2022/03/28 10:16:33;;;;;;;4.20;1.10;;;17.40;99.90;;;;;;6156646;23;20026;-90
2022/03/28 10:19:03;;;;;;;3.08;1.17;;;17.30;99.90;;;;;;6180826;23;20447;-90
2022/03/28 10:21:33;;;;;;;1.65;0.77;;;17.50;99.90;;;;;;6181035;23;20444;-90
2022/03/28 10:24:22;;;;;;;3.95;1.30;;;17.70;99.90;;;;;;6181034;23;20006;-90
2022/03/28 10:26:53;;;;;;;4.45;1.60;;;18.00;99.90;;;;;;6181024;23;20095;-90
2022/03/28 10:29:22;;;;;;;9.48;1.13;;;18.10;99.90;;;;;;6180985;23;20037;-90
2022/03/28 10:31:54;;;;;;;3.90;1.23;;;18.20;99.90;;;;;;6180918;23;20013;-91
2022/03/28 10:35:05;;;;;;;4.82;1.95;;;18.40;99.90;;;;;;6180870;23;20006;-90
2022/03/28 10:37:49;;;;;;;3.15;1.50;;;18.70;99.90;;;;;;6180734;23;20021;-91
2022/03/28 10:40:29;;;;;;;3.63;0.95;;;18.70;99.90;;;;;;6180810;23;20102;-91
2022/03/28 10:43:09;;;;;;;5.38;1.52;;;18.60;99.90;;;;;;6180963;23;20308;-91
2022/03/28 10:45:39;;;;;;;3.40;1.33;;;18.60;99.90;;;;;;6180650;23;20009;-91
2022/03/28 10:48:07;;;;;;;3.88;1.77;;;18.50;99.90;;;;;;6180369;23;20021;-91
2022/03/28 10:50:51;;;;;;;5.38;1.38;;;18.80;99.90;;;;;;6181112;23;20424;-90
2022/03/28 10:53:46;;;;;;;6.53;1.50;;;18.90;99.90;;;;;;6180952;23;20010;-91
2022/03/28 10:56:16;;;;;;;2.90;1.75;;;19.00;99.90;;;;;;6180617;23;20020;-91
2022/03/28 10:58:48;;;;;;;2.90;1.17;;;19.00;99.90;;;;;;6180559;23;20010;-90
2022/03/28 11:01:17;;;;;;;3.15;1.20;;;19.00;99.90;;;;;;6180687;23;20092;-91
2022/03/28 11:03:47;;;;;;;4.65;1.50;;;19.00;99.90;;;;;;6180681;23;20016;-89
2022/03/28 11:06:19;;;;;;;2.00;1.30;;;18.80;99.90;;;;;;6180564;23;20029;-91
2022/03/28 11:08:59;;;;;;;4.00;1.58;;;18.70;99.90;;;;;;6180617;23;20009;-91
2022/03/28 11:11:32;;;;;;;4.53;1.35;;;18.60;99.90;;;;;;6180541;23;20008;-90
2022/03/28 11:14:13;;;;;;;10.60;2.40;;;18.70;99.90;;;;;;6184047;23;20016;-91
2022/03/28 11:16:40;;;;;;;4.85;1.77;;;18.60;99.90;;;;;;6160522;23;20280;-92
2022/03/28 11:19:50;;;;;;;5.05;1.65;;;18.50;99.90;;;;;;6185779;23;20024;-90
2022/03/28 11:22:17;;;;;;;2.70;1.73;;;18.30;99.90;;;;;;6106940;23;20005;-91
2022/03/28 11:24:46;;;;;;;4.20;2.15;;;18.20;99.90;;;;;;6160523;23;20013;-90
2022/03/28 11:27:16;;;;;;;11.02;2.78;;;18.20;99.90;;;;;;6185419;23;20012;-90
2022/03/28 11:29:47;;;;;;;9.40;1.80;;;18.30;99.90;;;;;;6160573;23;20005;-90
2022/03/28 11:32:19;;;;;;;4.78;1.80;;;18.40;99.90;;;;;;6160513;23;20009;-91
2022/03/28 11:34:54;;;;;;;6.07;2.00;;;18.40;99.90;;;;;;6160964;23;20009;-89
2022/03/28 11:37:27;;;;;;;3.10;1.70;;;18.30;99.90;;;;;;6160465;23;20023;-90
2022/03/28 11:40:04;;;;;;;3.10;1.55;;;18.40;99.90;;;;;;6160493;23;20061;-91
2022/03/28 11:42:32;;;;;;;6.13;2.45;;;18.30;99.90;;;;;;6160479;23;20336;-90
2022/03/28 11:45:09;;;;;;;5.45;2.67;;;18.20;99.90;;;;;;6160502;23;20527;-90
2022/03/28 11:47:49;;;;;;;8.48;2.55;;;18.20;99.90;;;;;;6160755;23;20012;-89
2022/03/28 11:50:16;;;;;;;9.50;3.05;;;18.20;99.90;;;;;;6161744;23;20009;-88
2022/03/28 11:52:53;;;;;;;7.45;2.33;;;18.20;99.90;;;;;;6186292;23;20005;-90
2022/03/28 11:55:24;;;;;;;2.97;1.90;;;18.20;99.90;;;;;;6161190;23;20335;-89
2022/03/28 12:00:47;;;;;;;5.25;2.60;;;18.00;99.90;;;;;;6192308;23;20009;-89
2022/03/28 12:03:15;;;;;;;5.97;1.77;;;18.20;99.90;;;;;;6163813;23;20036;-92
2022/03/28 12:05:47;;;;;;;6.47;2.45;;;18.20;99.90;;;;;;6162298;23;20009;-92
2022/03/28 12:08:16;;;;;;;4.82;2.28;;;18.20;99.90;;;;;;6162891;23;20025;-89
2022/03/28 12:10:49;;;;;;;5.03;2.80;;;18.10;99.90;;;;;;6162820;23;20016;-89
2022/03/28 12:13:18;;;;;;;5.85;2.15;;;18.10;99.90;;;;;;6162855;23;20009;-92
2022/03/28 12:15:46;;;;;;;3.90;1.63;;;18.20;99.90;;;;;;6182013;23;20029;-91
2022/03/28 12:18:15;;;;;;;4.97;2.47;;;18.10;99.90;;;;;;6182279;23;20014;-90
2022/03/28 12:20:48;;;;;;;8.13;1.83;;;18.10;99.90;;;;;;6182097;23;20013;-91
2022/03/28 12:23:17;;;;;;;7.82;2.60;;;18.20;99.90;;;;;;6182285;23;20577;-91
2022/03/28 12:25:51;;;;;;;5.22;2.00;;;18.30;99.90;;;;;;6182534;23;20044;-92
2022/03/28 12:28:24;;;;;;;6.20;2.53;;;18.20;99.90;;;;;;6182191;23;20009;-90
2022/03/28 12:30:57;;;;;;;12.30;2.13;;;18.30;99.90;;;;;;6182440;23;20013;-91
2022/03/28 12:33:32;;;;;;;4.38;1.73;;;18.30;99.90;;;;;;6181799;23;20010;-89
2022/03/28 12:36:00;;;;;;;4.35;2.10;;;18.40;99.90;;;;;;6181889;23;20013;-85
2022/03/28 12:39:00;;;;;;;6.20;2.70;;;18.40;99.90;;;;;;6181912;23;20033;-85
2022/03/28 12:41:28;;;;;;;4.45;2.33;;;18.30;99.90;;;;;;6137841;23;20465;-86
2022/03/28 12:43:56;;;;;;;9.85;2.58;;;18.30;99.90;;;;;;6182141;23;20005;-86
2022/03/28 12:46:25;;;;;;;6.05;2.17;;;18.40;99.90;;;;;;6181936;23;20025;-85
2022/03/28 12:48:54;;;;;;;28.67;9.48;;;18.40;99.90;;;;;;6181856;23;20059;-87
2022/03/28 12:51:30;;;;;;;6.10;2.58;;;18.60;99.90;;;;;;6183241;23;20005;-86
2022/03/28 12:54:06;;;;;;;5.93;2.15;;;18.60;99.90;;;;;;6181702;23;20009;-88
2022/03/28 12:56:54;;;;;;;4.45;1.67;;;18.20;99.90;;;;;;6181839;23;20025;-87